createdAt,value
2017-10-22T00:01:26.911Z,12.50
2017-10-22T00:03:54.430Z,12.50
2017-10-22T00:06:21.806Z,12.40
2017-10-22T00:08:49.235Z,12.44
2017-10-22T00:11:16.643Z,12.41
2017-10-22T00:13:44.015Z,12.46
2017-10-22T00:16:11.495Z,12.59
2017-10-22T00:18:38.878Z,12.61
2017-10-22T00:21:06.275Z,12.58
2017-10-22T00:23:33.664Z,12.63
2017-10-22T00:26:01.055Z,12.67
2017-10-22T00:28:28.475Z,12.55
2017-10-22T00:30:55.862Z,12.44
2017-10-22T00:33:23.258Z,12.53
2017-10-22T00:35:50.658Z,12.49
2017-10-22T00:38:18.044Z,12.47
2017-10-22T00:40:45.439Z,12.54
2017-10-22T00:43:12.822Z,12.35
2017-10-22T00:45:40.227Z,12.36
2017-10-22T00:48:07.602Z,12.45
2017-10-22T00:50:35.008Z,12.42
2017-10-22T00:53:02.392Z,12.43
2017-10-22T00:55:29.792Z,12.34
2017-10-22T00:57:57.189Z,12.26
2017-10-22T01:00:24.599Z,12.37
2017-10-22T01:02:52.004Z,12.45
2017-10-22T01:05:19.392Z,12.19
2017-10-22T01:07:46.796Z,12.19
2017-10-22T01:10:14.192Z,12.04
2017-10-22T01:12:41.589Z,12.02
2017-10-22T01:15:08.985Z,12.03
2017-10-22T01:17:36.380Z,12.09
2017-10-22T01:20:03.769Z,12.10
2017-10-22T01:22:31.168Z,12.16
2017-10-22T01:24:58.553Z,12.18
2017-10-22T01:27:25.955Z,12.22
2017-10-22T01:29:53.338Z,12.18
2017-10-22T01:32:20.739Z,12.21
2017-10-22T01:34:48.136Z,12.08
2017-10-22T01:37:15.616Z,11.89
2017-10-22T01:39:43.010Z,11.74
2017-10-22T01:42:10.400Z,11.55
2017-10-22T01:44:37.799Z,11.46
2017-10-22T01:47:05.215Z,11.37
2017-10-22T01:49:32.612Z,11.50
2017-10-22T01:52:00.014Z,11.54
2017-10-22T01:54:27.408Z,11.56
2017-10-22T01:56:54.804Z,11.55
2017-10-22T01:59:22.193Z,11.53
2017-10-22T02:01:49.602Z,11.48
2017-10-22T02:04:16.998Z,11.29
2017-10-22T02:06:44.454Z,11.17
2017-10-22T02:09:11.935Z,11.26
2017-10-22T02:11:39.328Z,11.27
2017-10-22T02:14:06.728Z,11.12
2017-10-22T02:16:34.146Z,11.15
2017-10-22T02:19:01.558Z,11.16
2017-10-22T02:21:28.950Z,11.12
2017-10-22T02:23:56.379Z,11.27
2017-10-22T02:26:23.767Z,11.31
2017-10-22T02:28:51.171Z,11.26
2017-10-22T02:31:18.555Z,11.20
2017-10-22T02:33:45.957Z,11.20
2017-10-22T02:36:13.345Z,11.19
2017-10-22T02:38:40.744Z,11.11
2017-10-22T02:41:08.154Z,11.06
2017-10-22T02:43:35.547Z,11.04
2017-10-22T02:46:02.938Z,11.00
2017-10-22T02:48:30.331Z,11.00
2017-10-22T02:50:57.720Z,11.05
2017-10-22T02:53:25.106Z,11.15
2017-10-22T02:55:52.504Z,11.12
2017-10-22T02:58:19.897Z,11.03
2017-10-22T03:00:47.294Z,11.07
2017-10-22T03:03:14.689Z,11.02
2017-10-22T03:05:42.082Z,10.96
2017-10-22T03:08:09.473Z,11.10
2017-10-22T03:10:36.872Z,10.98
2017-10-22T03:13:04.256Z,11.02
2017-10-22T03:15:32.601Z,11.07
2017-10-22T03:18:00.012Z,11.15
2017-10-22T03:20:27.438Z,10.93
2017-10-22T03:22:54.834Z,11.07
2017-10-22T03:25:22.226Z,11.11
2017-10-22T03:27:49.605Z,11.05
2017-10-22T03:30:17.084Z,11.18
2017-10-22T03:32:44.472Z,11.00
2017-10-22T03:35:11.876Z,11.03
2017-10-22T03:37:39.351Z,10.99
2017-10-22T03:40:06.752Z,11.04
2017-10-22T03:42:34.156Z,10.94
2017-10-22T03:45:01.555Z,10.98
2017-10-22T03:47:28.949Z,10.99
2017-10-22T03:49:56.345Z,10.89
2017-10-22T03:52:23.731Z,10.93
2017-10-22T03:54:51.143Z,10.85
2017-10-22T03:57:18.532Z,11.00
2017-10-22T03:59:45.923Z,10.88
2017-10-22T04:02:13.331Z,10.92
2017-10-22T04:04:40.731Z,11.13
2017-10-22T04:07:08.211Z,11.07
2017-10-22T04:09:35.603Z,11.04
2017-10-22T04:12:03.014Z,10.95
2017-10-22T04:14:30.398Z,11.02
2017-10-22T04:16:57.799Z,10.98
2017-10-22T04:19:25.297Z,10.93
2017-10-22T04:21:52.692Z,10.87
2017-10-22T04:24:20.085Z,10.87
2017-10-22T04:26:47.578Z,10.93
2017-10-22T04:29:14.964Z,10.80
2017-10-22T04:31:42.354Z,10.70
2017-10-22T04:34:09.746Z,10.63
2017-10-22T04:36:37.147Z,10.68
2017-10-22T04:39:04.538Z,10.58
2017-10-22T04:41:31.946Z,10.54
2017-10-22T04:43:59.364Z,10.50
2017-10-22T04:46:26.760Z,10.67
2017-10-22T04:48:54.150Z,10.59
2017-10-22T04:51:21.543Z,10.36
2017-10-22T04:53:48.939Z,10.26
2017-10-22T04:56:16.336Z,10.22
2017-10-22T04:58:43.727Z,10.30
2017-10-22T05:01:11.230Z,10.11
2017-10-22T05:03:38.622Z,10.05
2017-10-22T05:06:06.046Z,10.23
2017-10-22T05:08:33.434Z,10.14
2017-10-22T05:11:00.876Z,10.16
2017-10-22T05:13:28.259Z,10.05
2017-10-22T05:15:55.671Z,10.14
2017-10-22T05:18:23.125Z,10.02
2017-10-22T05:20:50.511Z,9.91
2017-10-22T05:23:17.903Z,9.84
2017-10-22T05:25:45.296Z,9.87
2017-10-22T05:28:12.691Z,9.79
2017-10-22T05:30:40.071Z,9.74
2017-10-22T05:33:07.472Z,9.84
2017-10-22T05:35:34.854Z,9.93
2017-10-22T05:38:02.619Z,10.04
2017-10-22T05:40:30.028Z,10.00
2017-10-22T05:42:57.419Z,10.01
2017-10-22T05:45:24.816Z,9.94
2017-10-22T05:47:52.206Z,9.89
2017-10-22T05:50:19.605Z,9.81
2017-10-22T05:52:46.987Z,9.74
2017-10-22T05:55:14.427Z,9.82
2017-10-22T05:57:41.840Z,9.70
2017-10-22T06:00:09.227Z,9.88
2017-10-22T06:02:36.771Z,9.83
2017-10-22T06:05:04.167Z,9.87
2017-10-22T06:07:31.603Z,10.01
2017-10-22T06:09:58.994Z,10.21
2017-10-22T06:12:26.391Z,10.23
2017-10-22T06:14:53.791Z,10.36
2017-10-22T06:17:21.218Z,10.41
2017-10-22T06:19:48.708Z,10.43
2017-10-22T06:22:16.110Z,10.51
2017-10-22T06:24:43.502Z,10.76
2017-10-22T06:27:10.903Z,10.76
2017-10-22T06:29:38.296Z,10.89
2017-10-22T06:32:05.678Z,10.83
2017-10-22T06:34:33.075Z,10.88
2017-10-22T06:37:00.719Z,10.81
2017-10-22T06:39:28.167Z,10.75
2017-10-22T06:41:55.562Z,10.72
2017-10-22T06:44:22.962Z,10.94
2017-10-22T06:46:50.357Z,10.86
2017-10-22T06:49:17.959Z,11.02
2017-10-22T06:51:45.336Z,10.91
2017-10-22T06:54:12.727Z,11.08
2017-10-22T06:56:40.129Z,11.21
2017-10-22T06:59:07.554Z,11.28
2017-10-22T07:01:34.959Z,11.47
2017-10-22T07:04:02.347Z,11.51
2017-10-22T07:06:29.746Z,11.64
2017-10-22T07:08:57.134Z,11.62
2017-10-22T07:11:24.526Z,11.64
2017-10-22T07:13:53.896Z,11.80
2017-10-22T07:16:21.431Z,11.78
2017-10-22T07:18:48.823Z,12.11
2017-10-22T07:21:16.229Z,12.75
2017-10-22T07:23:43.611Z,13.66
2017-10-22T07:26:11.011Z,15.01
2017-10-22T07:28:38.394Z,15.79
2017-10-22T07:31:05.799Z,15.75
2017-10-22T07:33:33.182Z,15.41
2017-10-22T07:36:00.590Z,14.88
2017-10-22T07:38:27.986Z,14.46
2017-10-22T07:40:55.383Z,14.04
2017-10-22T07:43:22.773Z,13.79
2017-10-22T07:45:50.183Z,13.76
2017-10-22T07:48:17.579Z,13.78
2017-10-22T07:50:44.966Z,13.33
2017-10-22T07:53:12.360Z,13.26
2017-10-22T07:55:39.834Z,13.26
2017-10-22T07:58:07.224Z,13.46
2017-10-22T08:00:34.614Z,13.73
2017-10-22T08:03:02.018Z,13.67
2017-10-22T08:05:29.407Z,13.73
2017-10-22T08:07:56.807Z,13.70
2017-10-22T08:10:24.207Z,13.68
2017-10-22T08:12:51.597Z,13.67
2017-10-22T08:15:19.000Z,13.51
2017-10-22T08:17:46.422Z,13.50
2017-10-22T08:20:13.831Z,13.54
2017-10-22T08:22:41.227Z,13.24
2017-10-22T08:25:08.627Z,13.37
2017-10-22T08:27:36.019Z,13.49
2017-10-22T08:30:03.947Z,13.30
2017-10-22T08:32:31.342Z,13.34
2017-10-22T08:34:58.739Z,13.50
2017-10-22T08:37:26.130Z,13.47
2017-10-22T08:39:53.545Z,13.35
2017-10-22T08:42:21.003Z,13.13
2017-10-22T08:44:48.417Z,13.11
2017-10-22T08:47:15.802Z,13.09
2017-10-22T08:49:43.207Z,13.18
2017-10-22T08:52:10.587Z,13.01
2017-10-22T08:54:37.975Z,12.94
2017-10-22T08:57:05.366Z,12.81
2017-10-22T08:59:32.759Z,12.79
2017-10-22T09:02:00.239Z,12.75
2017-10-22T09:04:27.635Z,12.83
2017-10-22T09:06:55.028Z,12.79
2017-10-22T09:09:22.434Z,12.61
2017-10-22T09:11:49.831Z,12.59
2017-10-22T09:14:17.227Z,12.91
2017-10-22T09:16:44.610Z,12.77
